Pagrindinis puslapis
METAR-TAF:

METAR-TAF

Oro uostai :

Ilas, Peru

platuma: 17-41-45S, ilguma: 071-20-35W, Aukštis: 22 m

Dabartinis oras

Ataskaita buvo paskelbta 5 valandos ir 25 minutes, ne 18:00 UTC
Vėjas 8 kt iš Pietų
Temperatūra 22°C
Drėgmė 60%
Slėgis 1013 hPa
Matomumas 10 km arba daugiau
nėra debesų žemiau 1500 m ir nėra kamuolinių lietaus debesų

METAR: SPLO 281800Z 18008KT CAVOK 22/14 Q1013 RMK PP000

Laikas: 18:25 (23:25 UTC)

Prognozė

Ataskaita buvo paskelbta 11 valandos ir 13 minutes, ne 12:12 UTC
Prognozė galioja nuo 28 metu 12 UTC su 29 metu 12 UTC
Vėjas 7 kt iš Pietų/Pietryčių
Matomumas 10 km arba daugiau
nėra debesų žemiau 1500 m ir nėra kamuolinių lietaus debesų
Nuo 28 metu 1700 UTC
Vėjas 8 kt iš Pietų/Pietryčių
Matomumas 10 km arba daugiau
nėra debesų žemiau 1500 m ir nėra kamuolinių lietaus debesų
Nuo 29 metu 0100 UTC
Vėjas 5 kt iš Pietryčių
Matomumas 10 km arba daugiau
Su prošvaistėmis ne aukštis 2500 ft

TAF: SPLO 281212Z 2812/2912 16007KT CAVOK TX22/2819Z TN14/2910Z FM281700 16008KT CAVOK FM290100 14005KT 9999 BKN025

Orai ataskaitas ir orų prognozės (METAR, TAF).

turimą stotys yra geltonos ir raudonos taškus žemėlapyje.

Perkelti pele per norėdami pamatyti stoties vardą.

Tada spustelėkite, norėdami matyti oro stebėjimo ir prognozės.

Norėdami pakeisti žemėlapį: spustelėkite ant žalios mygtukų su juodo kryžiaus žemyn,; žalią mygtuką su brūkšneliu, jei norite nutolinti; arba žalių rodyklių gretimoms žemėlapius.


METAR-TAF: